createdAt,value
2019-01-21T00:03:14.128Z,16.57
2019-01-21T00:07:27.990Z,16.77
2019-01-21T00:11:46.722Z,15.00
2019-01-21T00:16:05.474Z,18.13
2019-01-21T00:20:24.046Z,16.60
2019-01-21T00:24:42.133Z,16.80
2019-01-21T00:29:00.305Z,16.90
2019-01-21T00:33:18.524Z,18.40
2019-01-21T00:37:36.720Z,19.43
2019-01-21T00:41:54.964Z,17.70
2019-01-21T00:46:13.598Z,17.97
2019-01-21T00:50:31.913Z,18.77
2019-01-21T00:54:51.170Z,18.00
2019-01-21T00:59:09.498Z,17.87
2019-01-21T01:03:27.528Z,18.27
2019-01-21T01:07:46.300Z,17.07
2019-01-21T01:12:04.592Z,19.47
2019-01-21T01:16:22.765Z,16.83
2019-01-21T01:20:41.378Z,18.30
2019-01-21T01:25:00.341Z,18.37
2019-01-21T01:29:18.402Z,17.00
2019-01-21T01:33:36.945Z,20.37
2019-01-21T01:37:55.123Z,17.77
2019-01-21T01:42:13.189Z,18.07
2019-01-21T01:46:31.518Z,21.03
2019-01-21T01:50:50.254Z,19.67
2019-01-21T01:55:09.592Z,15.80
2019-01-21T01:59:27.994Z,17.50
2019-01-21T02:03:46.146Z,18.17
2019-01-21T02:08:04.279Z,20.50
2019-01-21T02:12:22.885Z,17.00
2019-01-21T02:16:41.233Z,21.70
2019-01-21T02:21:03.994Z,19.90
2019-01-21T02:25:27.629Z,19.63
2019-01-21T02:30:21.905Z,19.67
2019-01-21T02:35:17.317Z,21.23
2019-01-21T02:40:44.489Z,21.00
2019-01-21T02:45:55.449Z,21.13
2019-01-21T02:51:21.742Z,20.50
2019-01-21T02:56:40.679Z,21.47
2019-01-21T03:01:44.814Z,19.83
2019-01-21T03:07:27.351Z,20.90
2019-01-21T03:12:30.740Z,20.70
2019-01-21T03:18:07.942Z,21.03
2019-01-21T03:23:16.742Z,21.63
2019-01-21T03:28:38.268Z,20.97
2019-01-21T03:33:35.798Z,20.40
2019-01-21T03:38:57.410Z,21.80
2019-01-21T03:44:15.166Z,22.57
2019-01-21T03:48:54.997Z,19.87
2019-01-21T03:54:21.258Z,23.20
2019-01-21T03:59:04.050Z,22.93
2019-01-21T04:04:49.810Z,21.27
2019-01-21T04:09:51.930Z,20.00
2019-01-21T04:14:54.863Z,18.90
2019-01-21T04:20:09.335Z,20.90
2019-01-21T04:25:21.365Z,20.27
2019-01-21T04:30:38.678Z,18.83
2019-01-21T04:35:52.455Z,19.47
2019-01-21T04:40:58.359Z,20.27
2019-01-21T04:46:13.829Z,18.60
2019-01-21T04:51:14.957Z,18.30
2019-01-21T04:56:26.917Z,15.60
2019-01-21T05:01:37.165Z,20.20
2019-01-21T05:07:14.452Z,19.70
2019-01-21T05:12:30.470Z,16.37
2019-01-21T05:17:19.120Z,20.00
2019-01-21T05:23:03.593Z,16.97
2019-01-21T05:28:39.617Z,18.17
2019-01-21T05:33:54.439Z,15.93
2019-01-21T05:38:57.799Z,18.93
2019-01-21T05:44:22.979Z,15.60
2019-01-21T05:49:31.977Z,18.97
2019-01-21T05:54:56.487Z,17.97
2019-01-21T06:00:27.538Z,16.77
2019-01-21T06:05:19.110Z,17.03
2019-01-21T06:10:16.926Z,15.43
2019-01-21T06:15:44.100Z,16.20
2019-01-21T06:20:31.325Z,16.93
2019-01-21T06:25:46.971Z,16.40
2019-01-21T06:30:59.873Z,14.33
2019-01-21T06:36:04.982Z,16.97
2019-01-21T06:41:06.624Z,14.77
2019-01-21T06:46:33.107Z,13.23
2019-01-21T06:51:35.066Z,15.53
2019-01-21T06:56:53.422Z,14.37
2019-01-21T07:01:51.607Z,14.77
2019-01-21T07:07:11.558Z,14.17
2019-01-21T07:12:07.256Z,13.90
2019-01-21T07:17:49.540Z,15.50
2019-01-21T07:22:48.957Z,14.97
2019-01-21T07:27:51.517Z,18.30
2019-01-21T07:33:11.694Z,16.43
2019-01-21T07:38:07.163Z,15.47
2019-01-21T07:43:00.465Z,14.30
2019-01-21T07:48:30.512Z,14.57
2019-01-21T07:53:57.626Z,16.27
2019-01-21T07:59:21.311Z,16.87
2019-01-21T08:05:13.010Z,16.47
2019-01-21T08:10:19.296Z,14.67
2019-01-21T08:15:37.928Z,15.17
2019-01-21T08:20:48.563Z,15.33
2019-01-21T08:25:44.799Z,16.10
2019-01-21T08:31:00.356Z,16.27
2019-01-21T08:36:05.897Z,15.30
2019-01-21T08:41:36.620Z,16.80
2019-01-21T08:47:12.889Z,15.80
2019-01-21T08:52:28.823Z,18.03
2019-01-21T08:57:51.644Z,18.00
2019-01-21T09:03:01.148Z,17.73
2019-01-21T09:08:23.114Z,17.13
2019-01-21T09:13:24.927Z,16.23
2019-01-21T09:18:38.736Z,16.73
2019-01-21T09:24:03.267Z,16.73
2019-01-21T09:29:16.416Z,18.87
2019-01-21T09:34:13.181Z,19.13
2019-01-21T09:39:40.371Z,17.87
2019-01-21T09:44:59.526Z,18.20
2019-01-21T09:49:15.114Z,16.90
2019-01-21T09:53:34.043Z,18.10
2019-01-21T09:58:07.478Z,19.00
2019-01-21T10:02:45.947Z,18.77
2019-01-21T10:07:31.626Z,17.70
2019-01-21T10:13:07.066Z,17.97
2019-01-21T10:18:07.951Z,15.10
2019-01-21T10:23:18.656Z,18.10
2019-01-21T10:28:42.339Z,17.40
2019-01-21T10:34:03.960Z,15.23
2019-01-21T10:39:08.367Z,16.90
2019-01-21T10:44:19.121Z,17.17
2019-01-21T10:49:16.896Z,16.30
2019-01-21T10:54:50.046Z,12.07
2019-01-21T11:00:17.656Z,11.57
2019-01-21T11:05:08.483Z,8.40
2019-01-21T11:10:06.267Z,7.47
2019-01-21T11:15:03.621Z,7.27
2019-01-21T11:20:35.660Z,6.53
2019-01-21T11:25:48.911Z,8.03
2019-01-21T11:31:01.830Z,5.87
2019-01-21T11:36:32.301Z,6.50
2019-01-21T11:41:21.977Z,6.10
2019-01-21T11:46:43.494Z,5.80
2019-01-21T11:51:58.043Z,7.10
2019-01-21T11:56:58.734Z,8.80
2019-01-21T12:02:15.874Z,9.37
2019-01-21T12:07:07.720Z,11.43
2019-01-21T12:12:00.924Z,10.70
2019-01-21T12:17:21.447Z,13.10
2019-01-21T12:22:47.611Z,10.70
2019-01-21T12:28:23.170Z,14.67
2019-01-21T12:33:30.532Z,13.30
2019-01-21T12:38:34.169Z,15.20
2019-01-21T12:43:37.707Z,13.77
2019-01-21T12:48:51.094Z,15.67
2019-01-21T12:53:56.762Z,14.80
2019-01-21T12:59:05.662Z,15.10
2019-01-21T13:04:13.552Z,13.90
2019-01-21T13:09:03.957Z,8.73
2019-01-21T13:14:18.219Z,15.80
2019-01-21T13:19:42.871Z,15.50
2019-01-21T13:25:00.557Z,14.67
2019-01-21T13:30:26.336Z,16.37
2019-01-21T13:35:30.335Z,14.10
2019-01-21T13:40:59.604Z,13.93
2019-01-21T13:46:07.145Z,15.40
2019-01-21T13:51:30.160Z,12.50
2019-01-21T13:56:47.807Z,12.60
2019-01-21T14:01:38.826Z,13.70
2019-01-21T14:07:15.501Z,20.57
2019-01-21T14:11:57.581Z,19.17
2019-01-21T14:17:12.861Z,14.70
2019-01-21T14:22:04.740Z,14.80
2019-01-21T14:27:23.423Z,19.57
2019-01-21T14:32:54.517Z,15.80
2019-01-21T14:37:45.296Z,16.93
2019-01-21T14:42:53.353Z,18.03
2019-01-21T14:47:55.898Z,15.27
2019-01-21T14:53:08.487Z,18.30
2019-01-21T14:58:09.985Z,17.47
2019-01-21T15:03:46.816Z,18.20
2019-01-21T15:08:46.021Z,19.27
2019-01-21T15:13:59.628Z,18.60
2019-01-21T15:19:02.222Z,19.10
2019-01-21T15:24:00.947Z,19.13
2019-01-21T15:28:57.561Z,18.63
2019-01-21T15:33:48.762Z,18.53
2019-01-21T15:39:12.884Z,18.50
2019-01-21T15:44:14.993Z,19.20
2019-01-21T15:49:18.925Z,18.40
2019-01-21T15:54:35.202Z,19.10
2019-01-21T16:00:07.583Z,17.60
2019-01-21T16:04:59.240Z,22.27
2019-01-21T16:10:28.305Z,19.20
2019-01-21T16:15:00.834Z,18.90
2019-01-21T16:19:38.296Z,22.20
2019-01-21T16:24:42.771Z,22.33
2019-01-21T16:30:09.955Z,19.13
2019-01-21T16:35:52.292Z,19.67
2019-01-21T16:41:09.127Z,20.40
2019-01-21T16:45:27.467Z,20.37
2019-01-21T16:49:46.102Z,25.50
2019-01-21T16:54:04.512Z,21.47
2019-01-21T16:58:22.894Z,21.73
2019-01-21T17:02:41.101Z,20.30
2019-01-21T17:06:59.672Z,19.37
2019-01-21T17:11:17.953Z,19.20
2019-01-21T17:15:36.692Z,18.90
2019-01-21T17:19:55.060Z,13.63
2019-01-21T17:24:13.667Z,21.23
2019-01-21T17:28:32.323Z,19.80
2019-01-21T17:32:50.528Z,17.90
2019-01-21T17:37:10.057Z,19.80
2019-01-21T17:41:28.363Z,19.90
2019-01-21T17:45:47.021Z,16.77
2019-01-21T17:50:06.780Z,20.53
2019-01-21T17:54:25.220Z,20.17
2019-01-21T17:58:43.690Z,20.33
2019-01-21T18:03:02.567Z,20.67
2019-01-21T18:07:21.918Z,19.00
2019-01-21T18:11:41.470Z,19.60
2019-01-21T18:16:01.294Z,20.13
2019-01-21T18:20:25.464Z,19.97
2019-01-21T18:24:44.056Z,16.05
2019-01-21T18:29:02.363Z,18.83
2019-01-21T18:33:20.715Z,19.90
2019-01-21T18:37:39.351Z,20.60
2019-01-21T18:41:57.893Z,18.60
2019-01-21T18:46:16.227Z,20.33
2019-01-21T18:50:34.805Z,21.00
2019-01-21T18:54:53.246Z,19.70
2019-01-21T18:59:12.445Z,21.93
2019-01-21T19:03:30.892Z,21.90
2019-01-21T19:07:51.097Z,22.00
2019-01-21T19:12:09.253Z,21.47
2019-01-21T19:16:27.748Z,20.13
2019-01-21T19:20:46.057Z,19.70
2019-01-21T19:25:05.413Z,21.27
2019-01-21T19:29:24.726Z,19.30
2019-01-21T19:33:43.425Z,21.00
2019-01-21T19:38:04.680Z,17.60
2019-01-21T19:42:23.349Z,19.97
2019-01-21T19:46:45.300Z,19.20
2019-01-21T19:51:03.908Z,18.93
2019-01-21T19:55:30.005Z,20.03
2019-01-21T19:59:48.494Z,19.70
2019-01-21T20:04:08.414Z,19.50
2019-01-21T20:08:26.806Z,19.23
2019-01-21T20:12:45.471Z,20.60
2019-01-21T20:17:06.475Z,18.40
2019-01-21T20:21:25.738Z,17.80
2019-01-21T20:25:44.103Z,19.80
2019-01-21T20:30:02.732Z,17.27
2019-01-21T20:34:22.628Z,19.10
2019-01-21T20:38:41.097Z,19.30
2019-01-21T20:43:02.616Z,19.03
2019-01-21T20:47:22.845Z,18.20
2019-01-21T20:51:41.682Z,19.57
2019-01-21T20:56:00.389Z,20.33
2019-01-21T21:00:27.481Z,20.37
2019-01-21T21:04:45.605Z,19.80
2019-01-21T21:09:07.714Z,19.50
2019-01-21T21:13:26.051Z,20.00
2019-01-21T21:17:44.535Z,21.17
2019-01-21T21:22:02.758Z,21.70
2019-01-21T21:26:20.943Z,19.20
2019-01-21T21:30:40.460Z,20.73
2019-01-21T21:34:59.046Z,18.50
2019-01-21T21:39:17.270Z,20.37
2019-01-21T21:43:35.510Z,21.10
2019-01-21T21:47:53.630Z,21.30
2019-01-21T21:52:12.715Z,20.10
2019-01-21T21:56:31.117Z,18.83
2019-01-21T22:00:49.566Z,20.70
2019-01-21T22:05:08.935Z,20.17
2019-01-21T22:09:27.068Z,20.40
2019-01-21T22:13:45.878Z,19.60
2019-01-21T22:18:04.171Z,22.40
2019-01-21T22:22:22.374Z,20.43
2019-01-21T22:26:42.230Z,21.27
2019-01-21T22:31:00.453Z,23.07
2019-01-21T22:35:19.101Z,20.80
2019-01-21T22:39:37.766Z,20.77
2019-01-21T22:43:56.115Z,20.93
2019-01-21T22:48:14.316Z,18.40
2019-01-21T22:52:32.742Z,20.77
2019-01-21T22:56:50.948Z,20.20
2019-01-21T23:01:36.177Z,20.30
2019-01-21T23:05:54.735Z,18.30
2019-01-21T23:10:13.033Z,20.83
2019-01-21T23:14:31.558Z,18.97
2019-01-21T23:18:50.736Z,19.17
2019-01-21T23:23:09.096Z,19.63
2019-01-21T23:27:27.253Z,16.70
2019-01-21T23:31:45.747Z,17.60
2019-01-21T23:36:04.027Z,18.43
2019-01-21T23:40:22.344Z,17.73
2019-01-21T23:44:40.429Z,17.80
2019-01-21T23:48:58.662Z,20.03
2019-01-21T23:53:16.735Z,18.83
2019-01-21T23:57:34.903Z,18.07
